Time;durP1;ratioP1;P1;durP2;ratioP2;P2;SDS_P1;SDS_P2;PMS_P1;PMS_P2;Temp;Humidity;BMP_temperature;BMP_pressure;BME280_temperature;BME280_humidity;BME280_pressure;Samples;Min_cycle;Max_cycle;Signal;HPM_P1;HPM_P2
2022/03/14 00:02:25;;;;;;;4.68;3.00;;;;;;;10.20;100.00;101656.84;5070725;28;20037;-30
2022/03/14 00:04:54;;;;;;;5.55;3.03;;;;;;;10.19;100.00;101658.78;5070072;28;20481;-30
2022/03/14 00:07:23;;;;;;;4.38;2.80;;;;;;;10.17;100.00;101660.19;5070967;28;20052;-29
2022/03/14 00:09:52;;;;;;;4.25;2.50;;;;;;;10.17;100.00;101665.75;5070376;28;20044;-30
2022/03/14 00:12:23;;;;;;;4.53;2.90;;;;;;;10.16;100.00;101661.28;5070349;28;20095;-29
2022/03/14 00:14:55;;;;;;;4.33;2.83;;;;;;;10.15;100.00;101667.97;5071015;28;20135;-29
2022/03/14 00:17:24;;;;;;;4.57;2.67;;;;;;;10.15;100.00;101673.56;5071132;28;20050;-29
2022/03/14 00:19:51;;;;;;;4.47;2.50;;;;;;;10.15;100.00;101677.19;5070002;28;20084;-31
2022/03/14 00:22:20;;;;;;;5.13;2.67;;;;;;;10.17;100.00;101679.69;5062875;28;20052;-31
2022/03/14 00:24:48;;;;;;;3.78;2.70;;;;;;;10.17;100.00;101683.34;5070995;28;20071;-34
2022/03/14 00:27:16;;;;;;;4.80;2.72;;;;;;;10.17;100.00;101682.50;5073521;28;20041;-30
2022/03/14 00:29:45;;;;;;;3.47;2.40;;;;;;;10.18;100.00;101689.75;5074390;28;20079;-28
2022/03/14 00:32:13;;;;;;;3.83;2.38;;;;;;;10.19;100.00;101688.66;5074365;28;20048;-28
2022/03/14 00:34:42;;;;;;;4.18;2.30;;;;;;;10.18;100.00;101684.16;5073650;28;20045;-28
2022/03/14 00:37:10;;;;;;;4.32;2.83;;;;;;;10.19;100.00;101683.09;5074424;28;20056;-28
2022/03/14 00:39:37;;;;;;;3.25;2.38;;;;;;;10.19;100.00;101688.66;5072588;28;20045;-29
2022/03/14 00:42:05;;;;;;;3.25;2.10;;;;;;;10.18;100.00;101682.22;5071786;28;20104;-31
2022/03/14 00:44:33;;;;;;;3.53;2.10;;;;;;;10.19;100.00;101685.88;5071600;28;20391;-30
2022/03/14 00:47:02;;;;;;;3.83;2.25;;;;;;;10.19;100.00;101692.25;5072349;28;20040;-34
2022/03/14 00:49:30;;;;;;;4.78;2.42;;;;;;;10.18;100.00;101693.38;5073222;28;20063;-34
2022/03/14 00:51:58;;;;;;;4.00;2.72;;;;;;;10.18;100.00;101689.75;5073591;28;20045;-31
2022/03/14 00:54:25;;;;;;;3.67;2.22;;;;;;;10.16;100.00;101690.03;5071792;28;20049;-28
2022/03/14 00:56:53;;;;;;;4.68;2.33;;;;;;;10.17;100.00;101688.91;5074236;28;20468;-28
2022/03/14 00:59:21;;;;;;;4.00;2.25;;;;;;;10.16;100.00;101687.22;5073724;28;20051;-29
2022/03/14 01:01:49;;;;;;;3.67;1.85;;;;;;;10.15;100.00;101684.72;5073571;28;20047;-29
2022/03/14 01:04:22;;;;;;;2.45;1.60;;;;;;;10.15;100.00;101691.13;5073400;28;20055;-30
2022/03/14 01:06:50;;;;;;;3.08;1.75;;;;;;;10.14;100.00;101683.88;5073790;28;20382;-28
2022/03/14 01:09:18;;;;;;;3.92;2.05;;;;;;;10.14;100.00;101700.59;5073046;28;20051;-27
2022/03/14 01:11:45;;;;;;;3.70;2.05;;;;;;;10.14;100.00;101696.97;5073674;28;20056;-29
2022/03/14 01:14:13;;;;;;;4.75;2.47;;;;;;;10.13;100.00;101703.69;5073587;28;20037;-28
2022/03/14 01:16:41;;;;;;;3.78;2.60;;;;;;;10.11;100.00;101706.72;5072882;28;20049;-28
2022/03/14 01:19:11;;;;;;;3.78;2.20;;;;;;;10.11;100.00;101715.09;5073666;28;20055;-29
2022/03/14 01:21:41;;;;;;;2.80;1.70;;;;;;;10.09;100.00;101706.16;5073654;28;20412;-28
2022/03/14 01:24:09;;;;;;;2.15;1.30;;;;;;;10.08;100.00;101706.44;5072832;28;20036;-28
2022/03/14 01:26:37;;;;;;;2.75;1.60;;;;;;;10.08;100.00;101709.22;5073249;28;20058;-29
2022/03/14 01:29:07;;;;;;;2.35;1.50;;;;;;;10.08;100.00;101706.44;5072825;28;20049;-28
2022/03/14 01:31:35;;;;;;;3.40;1.45;;;;;;;10.07;100.00;101715.91;5073303;28;20481;-29
2022/03/14 01:34:03;;;;;;;1.98;1.30;;;;;;;10.06;100.00;101708.66;5073264;28;20123;-28
2022/03/14 01:36:31;;;;;;;2.40;1.38;;;;;;;10.05;100.00;101720.94;5072266;28;20041;-32
2022/03/14 01:39:00;;;;;;;1.92;1.30;;;;;;;10.05;100.00;101718.16;5072970;28;20549;-28
2022/03/14 01:41:29;;;;;;;2.40;1.38;;;;;;;10.05;100.00;101718.16;5073358;28;20132;-28
2022/03/14 01:43:57;;;;;;;3.08;1.65;;;;;;;10.01;100.00;101718.69;5072711;28;20052;-27
2022/03/14 01:46:25;;;;;;;5.32;2.40;;;;;;;9.99;100.00;101718.13;5073068;28;20043;-27
2022/03/14 01:48:53;;;;;;;3.95;2.10;;;;;;;9.99;100.00;101729.28;5061987;28;20071;-27
2022/03/14 01:51:25;;;;;;;2.72;1.65;;;;;;;9.98;100.00;101733.19;5071691;28;20048;-28
2022/03/14 01:53:54;;;;;;;3.20;2.25;;;;;;;9.98;100.00;101722.06;5072962;28;20456;-28
2022/03/14 01:56:24;;;;;;;3.25;2.10;;;;;;;9.96;100.00;101731.78;5072704;28;20061;-29
2022/03/14 01:58:53;;;;;;;2.83;1.92;;;;;;;9.95;100.00;101735.69;5072318;28;20413;-29
2022/03/14 02:01:21;;;;;;;3.45;2.20;;;;;;;9.94;100.00;101736.81;5072518;28;20048;-27
2022/03/14 02:03:50;;;;;;;4.30;3.05;;;;;;;9.93;100.00;101738.75;5072654;28;20485;-28
2022/03/14 02:06:18;;;;;;;4.32;2.60;;;;;;;9.94;100.00;101743.22;5071728;28;20044;-27
2022/03/14 02:08:46;;;;;;;3.55;2.30;;;;;;;9.95;100.00;101742.09;5071636;28;20056;-30
2022/03/14 02:11:14;;;;;;;4.47;3.28;;;;;;;9.96;100.00;101743.78;5071889;28;20044;-40
2022/03/14 02:13:43;;;;;;;4.43;3.17;;;;;;;9.98;100.00;101744.34;5072470;28;20040;-33
2022/03/14 02:16:11;;;;;;;4.38;3.30;;;;;;;9.99;100.00;101739.63;5072543;28;20080;-29
2022/03/14 02:18:39;;;;;;;4.63;2.95;;;;;;;9.99;100.00;101739.63;5071534;28;20066;-27
2022/03/14 02:21:11;;;;;;;4.13;2.88;;;;;;;10.01;100.00;101735.41;5072409;28;20180;-27
2022/03/14 02:23:39;;;;;;;3.90;2.80;;;;;;;10.01;100.00;101737.38;5072431;28;20144;-27
2022/03/14 02:26:07;;;;;;;4.55;2.70;;;;;;;10.00;100.00;101732.91;5071447;28;20037;-29
2022/03/14 02:28:35;;;;;;;4.18;3.22;;;;;;;10.00;100.00;101733.75;5072157;28;20053;-29
2022/03/14 02:31:04;;;;;;;4.45;3.17;;;;;;;9.98;100.00;101733.19;5071867;28;20048;-28
2022/03/14 02:33:32;;;;;;;4.70;3.50;;;;;;;9.97;100.00;101731.53;5071271;28;20447;-31
2022/03/14 02:36:00;;;;;;;4.53;3.58;;;;;;;9.95;100.00;101728.16;5071960;28;20404;-31
2022/03/14 02:38:29;;;;;;;4.10;3.30;;;;;;;9.93;100.00;101722.03;5060895;28;20477;-31
2022/03/14 02:40:58;;;;;;;4.80;3.58;;;;;;;9.93;100.00;101726.75;5071305;28;20143;-29
2022/03/14 02:43:26;;;;;;;3.67;2.85;;;;;;;9.91;100.00;101738.19;5071840;28;20052;-32
2022/03/14 02:45:54;;;;;;;4.65;3.10;;;;;;;9.91;100.00;101743.75;5072043;28;20417;-32
2022/03/14 02:48:26;;;;;;;4.63;3.17;;;;;;;9.87;100.00;101742.63;5067757;28;20044;-29
2022/03/14 02:50:56;;;;;;;4.38;3.28;;;;;;;9.85;100.00;101753.22;5072014;28;20087;-28
2022/03/14 02:53:24;;;;;;;4.25;3.00;;;;;;;9.84;100.00;101757.09;5070973;28;20079;-29
2022/03/14 02:55:53;;;;;;;4.03;2.85;;;;;;;9.82;100.00;101755.69;5071797;28;20048;-29
2022/03/14 02:58:20;;;;;;;3.65;2.50;;;;;;;9.80;100.00;101772.69;5071369;28;20079;-28
2022/03/14 03:00:50;;;;;;;4.28;3.08;;;;;;;9.78;100.00;101765.75;5069864;28;20498;-29
2022/03/14 03:03:18;;;;;;;4.32;3.25;;;;;;;9.77;100.00;101770.47;5071705;28;20055;-29
2022/03/14 03:05:46;;;;;;;3.80;2.58;;;;;;;9.75;100.00;101766.28;5071648;28;20040;-29
2022/03/14 03:08:14;;;;;;;4.50;2.97;;;;;;;9.74;100.00;101771.00;5070926;28;20417;-28
2022/03/14 03:10:43;;;;;;;3.60;2.65;;;;;;;9.73;100.00;101779.66;5071356;28;20040;-28
2022/03/14 03:13:12;;;;;;;4.57;2.95;;;;;;;9.73;100.00;101785.22;5071669;28;20049;-27
2022/03/14 03:15:40;;;;;;;3.75;2.72;;;;;;;9.73;100.00;101782.44;5070681;28;20076;-27
2022/03/14 03:18:08;;;;;;;4.05;3.00;;;;;;;9.72;100.00;101789.94;5071530;28;20346;-27
2022/03/14 03:20:36;;;;;;;3.60;2.50;;;;;;;9.73;100.00;101790.78;5071293;28;20490;-28
2022/03/14 03:23:04;;;;;;;3.70;2.70;;;;;;;9.75;100.00;101791.38;5070522;28;20048;-29
2022/03/14 03:25:32;;;;;;;5.25;3.28;;;;;;;9.74;100.00;101798.03;5071491;28;20063;-27
2022/03/14 03:28:00;;;;;;;3.03;2.33;;;;;;;9.76;100.00;101809.75;5071642;28;20056;-28
2022/03/14 03:30:29;;;;;;;3.85;2.70;;;;;;;9.76;100.00;101821.75;5070613;28;20215;-28
2022/03/14 03:32:57;;;;;;;4.60;2.58;;;;;;;9.75;100.00;101833.16;5071333;28;20041;-28
2022/03/14 03:35:24;;;;;;;4.65;3.13;;;;;;;9.73;100.00;101836.22;5071151;28;20036;-33
2022/03/14 03:37:52;;;;;;;5.10;3.38;;;;;;;9.70;100.00;101839.53;5070533;28;20053;-28
2022/03/14 03:40:20;;;;;;;6.10;4.53;;;;;;;9.69;100.00;101840.66;5071166;28;20095;-28
2022/03/14 03:42:49;;;;;;;7.05;5.60;;;;;;;9.67;100.00;101842.88;5070603;28;20520;-31
2022/03/14 03:45:18;;;;;;;7.43;5.80;;;;;;;9.63;100.00;101841.72;5071204;28;20516;-28
2022/03/14 03:47:47;;;;;;;9.05;6.32;;;;;;;9.61;100.00;101843.94;5071389;28;20051;-27
2022/03/14 03:50:16;;;;;;;9.15;6.63;;;;;;;9.58;100.00;101844.50;5070045;28;20052;-27
2022/03/14 03:52:44;;;;;;;9.05;7.32;;;;;;;9.53;100.00;101850.88;5071443;28;20210;-29
2022/03/14 03:55:11;;;;;;;9.40;7.38;;;;;;;9.51;100.00;101860.59;5071083;28;20052;-33
2022/03/14 03:57:39;;;;;;;8.98;7.20;;;;;;;9.46;100.00;101868.91;5070519;28;20055;-30
2022/03/14 04:00:12;;;;;;;8.30;6.75;;;;;;;9.41;100.00;101871.66;5071276;28;20055;-34
2022/03/14 04:02:41;;;;;;;9.32;6.75;;;;;;;9.37;100.00;101870.53;5074917;28;20102;-36
2022/03/14 04:05:11;;;;;;;11.10;7.60;;;;;;;9.29;100.00;101875.47;5074401;28;20076;-31
2022/03/14 04:07:40;;;;;;;11.18;8.25;;;;;;;9.26;100.00;101881.56;5075380;28;20489;-30
2022/03/14 04:10:09;;;;;;;10.07;7.60;;;;;;;9.23;100.00;101886.81;5075181;28;20025;-28
2022/03/14 04:12:39;;;;;;;10.73;8.25;;;;;;;9.18;100.00;101889.59;5074126;28;20056;-31
2022/03/14 04:15:09;;;;;;;9.40;7.15;;;;;;;9.14;100.00;101892.06;5067378;28;20049;-32
2022/03/14 04:17:38;;;;;;;10.27;8.38;;;;;;;9.12;100.00;101896.22;5074838;28;20057;-37
2022/03/14 04:20:08;;;;;;;14.23;9.15;;;;;;;9.07;100.00;101896.16;5074089;28;20052;-30
2022/03/14 04:22:38;;;;;;;12.60;9.80;;;;;;;9.04;100.00;101891.94;5074861;28;20079;-28
2022/03/14 04:25:10;;;;;;;13.07;9.73;;;;;;;9.00;100.00;101888.00;5073887;28;20048;-28
2022/03/14 04:27:38;;;;;;;12.23;9.80;;;;;;;9.00;100.00;101888.00;5074638;28;20045;-28
2022/03/14 04:30:07;;;;;;;12.80;10.02;;;;;;;8.97;100.00;101891.34;5074822;28;20055;-29
2022/03/14 04:32:35;;;;;;;15.23;10.93;;;;;;;8.94;100.00;101894.66;5073836;28;20155;-28
2022/03/14 04:35:04;;;;;;;15.23;10.50;;;;;;;8.90;100.00;101899.91;5073354;28;20071;-30
2022/03/14 04:37:32;;;;;;;15.30;12.48;;;;;;;8.89;100.00;101901.00;5072261;28;20045;-28
2022/03/14 04:40:01;;;;;;;15.10;11.32;;;;;;;8.88;100.00;101912.38;5072251;28;20064;-33
2022/03/14 04:42:29;;;;;;;18.52;12.65;;;;;;;8.86;100.00;101921.00;5073218;28;20128;-27
2022/03/14 04:44:57;;;;;;;12.68;10.32;;;;;;;8.83;100.00;101918.72;5073250;28;20497;-28
2022/03/14 04:47:26;;;;;;;14.15;11.05;;;;;;;8.82;100.00;101917.06;5072594;28;20056;-31
2022/03/14 04:49:53;;;;;;;15.00;12.05;;;;;;;8.83;100.00;101927.09;5073278;28;20091;-30
2022/03/14 04:52:21;;;;;;;15.52;12.30;;;;;;;8.83;100.00;101920.69;5072664;28;20465;-30
2022/03/14 04:54:54;;;;;;;17.48;12.32;;;;;;;8.82;100.00;101932.91;5073397;28;20047;-31
2022/03/14 04:57:24;;;;;;;15.20;11.07;;;;;;;8.81;100.00;101939.56;5073978;28;20053;-28
2022/03/14 04:59:51;;;;;;;18.75;13.88;;;;;;;8.80;100.00;101943.47;5073674;28;20501;-29
2022/03/14 05:02:22;;;;;;;14.93;12.30;;;;;;;8.80;100.00;101949.03;5072845;28;20052;-29
2022/03/14 05:04:50;;;;;;;17.75;13.52;;;;;;;8.75;100.00;101946.22;5073143;28;20036;-28
2022/03/14 05:07:18;;;;;;;20.70;14.98;;;;;;;8.73;100.00;101948.41;5073016;28;20378;-29
2022/03/14 05:09:46;;;;;;;18.55;13.30;;;;;;;8.70;100.00;101954.47;5074122;28;20049;-28
2022/03/14 05:12:14;;;;;;;17.67;13.88;;;;;;;8.70;100.00;101948.91;5073510;28;20045;-36
2022/03/14 05:14:43;;;;;;;18.63;14.25;;;;;;;8.68;100.00;101959.47;5072910;28;20504;-29
2022/03/14 05:17:11;;;;;;;18.38;12.77;;;;;;;8.68;100.00;101965.88;5073793;28;20048;-28
2022/03/14 05:19:39;;;;;;;20.85;14.80;;;;;;;8.68;100.00;101963.09;5073636;28;20513;-29
2022/03/14 05:22:08;;;;;;;22.13;16.38;;;;;;;8.67;100.00;101980.03;5073110;28;20048;-28
2022/03/14 05:24:36;;;;;;;24.45;17.85;;;;;;;8.66;100.00;101981.13;5073728;28;20095;-29
2022/03/14 05:27:06;;;;;;;23.33;16.85;;;;;;;8.63;100.00;101986.13;5073809;28;20100;-30
2022/03/14 05:29:34;;;;;;;21.85;16.42;;;;;;;8.63;100.00;101990.84;5072746;28;20436;-27
2022/03/14 05:32:04;;;;;;;23.35;18.08;;;;;;;8.62;100.00;101994.72;5073465;28;20142;-28
2022/03/14 05:34:32;;;;;;;26.23;19.30;;;;;;;8.60;100.00;102000.53;5073375;28;20054;-27
2022/03/14 05:37:00;;;;;;;25.75;19.73;;;;;;;8.58;100.00;102007.50;5072605;28;20494;-32
2022/03/14 05:39:28;;;;;;;25.50;19.17;;;;;;;8.58;100.00;102021.41;5073180;28;20049;-29
2022/03/14 05:41:56;;;;;;;26.88;19.77;;;;;;;8.55;100.00;102019.97;5073302;28;20044;-30
2022/03/14 05:44:25;;;;;;;27.50;19.75;;;;;;;8.53;100.00;102024.94;5072289;28;20044;-30
2022/03/14 05:46:53;;;;;;;30.65;21.83;;;;;;;8.51;100.00;102034.66;5072993;28;20052;-33
2022/03/14 05:49:22;;;;;;;29.85;21.67;;;;;;;8.49;100.00;102032.13;5072630;28;20045;-29
2022/03/14 05:51:52;;;;;;;27.10;20.08;;;;;;;8.47;100.00;102039.88;5073296;28;20048;-33
2022/03/14 05:54:20;;;;;;;30.00;21.83;;;;;;;8.48;100.00;102047.13;5072836;28;20413;-30
2022/03/14 05:56:48;;;;;;;31.67;23.42;;;;;;;8.48;100.00;102046.28;5072264;28;20040;-28
2022/03/14 05:59:15;;;;;;;31.05;22.50;;;;;;;8.45;100.00;102057.91;5072598;28;20052;-29
2022/03/14 06:01:44;;;;;;;33.15;23.38;;;;;;;8.44;100.00;102054.28;5071936;28;20063;-28
2022/03/14 06:04:12;;;;;;;39.25;25.60;;;;;;;8.41;100.00;102065.94;5072226;28;20131;-28
2022/03/14 06:06:41;;;;;;;35.63;23.92;;;;;;;8.38;100.00;102069.25;5072703;28;20044;-31
2022/03/14 06:09:09;;;;;;;39.03;25.60;;;;;;;8.38;100.00;102073.97;5072564;28;20511;-28
2022/03/14 06:11:38;;;;;;;37.58;23.88;;;;;;;8.35;100.00;102061.41;5071259;28;20045;-29
2022/03/14 06:14:06;;;;;;;34.47;21.45;;;;;;;8.38;100.00;102073.97;5070620;28;20052;-28
2022/03/14 06:16:35;;;;;;;35.75;22.10;;;;;;;8.36;100.00;102079.78;5070070;28;20136;-31
2022/03/14 06:19:02;;;;;;;30.50;19.15;;;;;;;8.37;100.00;102084.25;5071429;28;20434;-29
2022/03/14 06:21:31;;;;;;;33.63;20.05;;;;;;;8.38;100.00;102094.28;5071128;28;20140;-30
2022/03/14 06:24:01;;;;;;;28.15;16.80;;;;;;;8.38;100.00;102097.06;5070141;28;20047;-27
2022/03/14 06:26:29;;;;;;;25.35;14.75;;;;;;;8.37;100.00;102092.59;5069846;28;20059;-26
2022/03/14 06:28:56;;;;;;;24.67;15.07;;;;;;;8.37;100.00;102100.94;5071300;28;20044;-29
2022/03/14 06:31:24;;;;;;;21.83;12.93;;;;;;;8.37;100.00;102103.72;5071140;28;20615;-27
2022/03/14 06:33:52;;;;;;;19.85;12.38;;;;;;;8.38;100.00;102102.63;5070787;28;20052;-30
2022/03/14 06:36:20;;;;;;;20.08;11.02;;;;;;;8.37;100.00;102106.50;5070846;28;20041;-27
2022/03/14 06:38:48;;;;;;;16.77;9.43;;;;;;;8.37;100.00;102116.78;5069294;28;20095;-34
2022/03/14 06:41:19;;;;;;;15.52;8.40;;;;;;;8.37;100.00;102131.53;5067932;28;20416;-27
2022/03/14 06:43:48;;;;;;;16.63;8.07;;;;;;;8.37;100.00;102131.53;5067865;28;20048;-28
2022/03/14 06:46:17;;;;;;;15.73;7.70;;;;;;;8.36;100.00;102138.19;5065923;28;20048;-28
2022/03/14 06:48:45;;;;;;;14.80;7.68;;;;;;;8.35;100.00;102136.50;5070662;28;20063;-28
2022/03/14 06:51:12;;;;;;;11.98;6.82;;;;;;;8.35;100.00;102144.84;5070498;28;20434;-28
2022/03/14 06:53:40;;;;;;;10.40;5.80;;;;;;;8.35;100.00;102142.06;5070390;28;20044;-27
2022/03/14 06:56:08;;;;;;;12.38;6.00;;;;;;;8.36;100.00;102151.25;5070681;28;20048;-28
2022/03/14 06:58:38;;;;;;;10.52;4.90;;;;;;;8.34;100.00;102159.84;5069483;28;20445;-34
2022/03/14 07:01:06;;;;;;;10.23;5.13;;;;;;;8.36;100.00;102171.56;5069433;28;20043;-29
2022/03/14 07:03:34;;;;;;;10.52;4.25;;;;;;;8.36;100.00;102168.78;5070273;28;20634;-29
2022/03/14 07:06:03;;;;;;;9.25;3.92;;;;;;;8.36;100.00;102179.91;5070462;28;20059;-28
2022/03/14 07:08:30;;;;;;;7.35;3.47;;;;;;;8.37;100.00;102175.19;5069658;28;20046;-30
2022/03/14 07:10:58;;;;;;;7.53;3.20;;;;;;;8.38;100.00;102174.94;5070316;28;20052;-28
2022/03/14 07:13:26;;;;;;;7.82;3.15;;;;;;;8.41;100.00;102184.69;5070194;28;20482;-29
2022/03/14 07:15:55;;;;;;;8.02;2.60;;;;;;;8.39;100.00;102198.03;5069717;28;20038;-28
2022/03/14 07:18:22;;;;;;;8.23;2.45;;;;;;;8.39;100.00;102198.03;5070082;28;20036;-36
2022/03/14 07:20:50;;;;;;;9.10;3.00;;;;;;;8.37;100.00;102203.00;5070297;28;20068;-28
2022/03/14 07:23:18;;;;;;;8.10;2.78;;;;;;;8.38;100.00;102205.53;5071393;28;20045;-29
2022/03/14 07:25:45;;;;;;;10.25;3.20;;;;;;;8.39;100.00;102215.56;5069519;28;20049;-29
2022/03/14 07:28:13;;;;;;;7.95;2.33;;;;;;;8.40;100.00;102213.59;5069756;28;20038;-31
2022/03/14 07:30:41;;;;;;;8.77;2.75;;;;;;;8.42;100.00;102216.97;5071411;28;20051;-28
2022/03/14 07:33:10;;;;;;;9.82;2.15;;;;;;;8.43;100.00;102221.44;5071231;28;20045;-28
2022/03/14 07:35:38;;;;;;;7.78;1.98;;;;;;;8.43;100.00;102213.09;5070487;28;20104;-33
2022/03/14 07:38:06;;;;;;;7.88;1.58;;;;;;;8.45;100.00;102220.09;5071094;28;20033;-33
2022/03/14 07:40:34;;;;;;;5.80;1.80;;;;;;;8.50;100.00;102216.56;5071415;28;20052;-29
2022/03/14 07:43:02;;;;;;;8.35;2.00;;;;;;;8.55;100.00;102217.50;5069287;28;20049;-30
2022/03/14 07:45:33;;;;;;;6.85;1.48;;;;;;;8.57;100.00;102232.00;5071398;28;20139;-30
2022/03/14 07:48:06;;;;;;;7.95;1.73;;;;;;;8.59;100.00;102232.56;5071233;28;20041;-29
2022/03/14 07:50:36;;;;;;;8.95;1.42;;;;;;;8.62;100.00;102237.63;5070675;28;20043;-29
2022/03/14 07:53:04;;;;;;;6.38;1.48;;;;;;;8.64;100.00;102252.13;5071076;28;20055;-29
2022/03/14 07:55:31;;;;;;;8.82;2.13;;;;;;;8.66;100.00;102239.91;5070277;28;20066;-31
2022/03/14 07:57:59;;;;;;;6.72;1.50;;;;;;;8.68;100.00;102243.28;5070166;28;20048;-30
2022/03/14 08:00:27;;;;;;;5.95;1.60;;;;;;;8.69;100.00;102248.59;5071321;28;20052;-28
2022/03/14 08:02:55;;;;;;;5.57;1.48;;;;;;;8.69;100.00;102253.34;5070325;28;20146;-28
2022/03/14 08:05:26;;;;;;;7.88;2.17;;;;;;;8.73;100.00;102254.53;5071204;28;20105;-29
2022/03/14 08:07:56;;;;;;;7.68;1.65;;;;;;;8.72;100.00;102258.41;5071196;28;20045;-28
2022/03/14 08:10:24;;;;;;;8.82;1.80;;;;;;;8.70;100.00;102266.16;5070369;28;20044;-29
2022/03/14 08:12:54;;;;;;;9.43;1.70;;;;;;;8.74;100.00;102267.34;5070854;28;20053;-31
2022/03/14 08:15:24;;;;;;;9.00;2.03;;;;;;;8.75;100.00;102277.38;5070896;28;20496;-29
2022/03/14 08:17:52;;;;;;;10.43;2.80;;;;;;;8.75;100.00;102281.00;5070008;28;20486;-28
2022/03/14 08:20:22;;;;;;;9.57;2.65;;;;;;;8.75;100.00;102278.22;5070990;28;20451;-28
2022/03/14 08:22:50;;;;;;;10.68;3.40;;;;;;;8.75;100.00;102286.56;5070822;28;20033;-29
2022/03/14 08:25:22;;;;;;;11.73;3.90;;;;;;;8.78;100.00;102280.50;5069204;28;20080;-28
2022/03/14 08:27:50;;;;;;;12.13;4.57;;;;;;;8.79;100.00;102275.78;5069714;28;20047;-28
2022/03/14 08:30:19;;;;;;;13.57;6.05;;;;;;;8.82;100.00;102291.94;5069708;28;20390;-29
2022/03/14 08:32:46;;;;;;;15.60;6.35;;;;;;;8.85;100.00;102283.09;5068872;28;20055;-31
2022/03/14 08:35:18;;;;;;;16.77;6.15;;;;;;;8.87;100.00;102289.25;5069717;28;20044;-29
2022/03/14 08:37:47;;;;;;;16.95;6.75;;;;;;;8.89;100.00;102287.91;5069181;28;20052;-32
2022/03/14 08:40:16;;;;;;;18.80;7.32;;;;;;;8.94;100.00;102289.94;5069088;28;20174;-31
2022/03/14 08:42:48;;;;;;;13.88;7.20;;;;;;;9.00;100.00;102297.25;5067710;28;20052;-33
2022/03/14 08:45:16;;;;;;;14.85;7.40;;;;;;;9.06;100.00;102301.81;5064897;28;20473;-28
2022/03/14 08:47:44;;;;;;;17.55;9.40;;;;;;;9.10;100.00;102305.78;5071860;28;20049;-29
2022/03/14 08:50:14;;;;;;;18.83;9.75;;;;;;;9.15;100.00;102314.25;5070461;28;20080;-29
2022/03/14 08:52:43;;;;;;;19.00;9.02;;;;;;;9.19;100.00;102309.00;5072537;28;20045;-33
2022/03/14 08:55:11;;;;;;;16.50;9.40;;;;;;;9.23;100.00;102316.56;5072564;28;20135;-28
2022/03/14 08:57:40;;;;;;;21.77;9.85;;;;;;;9.30;100.00;102317.25;5072726;28;20079;-28
2022/03/14 09:00:11;;;;;;;17.40;9.35;;;;;;;9.41;100.00;102325.75;5071579;28;20055;-29
2022/03/14 09:02:40;;;;;;;22.30;11.48;;;;;;;9.43;100.00;102326.34;5072381;28;20623;-28
2022/03/14 09:05:09;;;;;;;24.10;11.38;;;;;;;9.49;100.00;102331.75;5072750;28;20056;-29
2022/03/14 09:07:37;;;;;;;22.67;12.70;;;;;;;9.61;100.00;102328.84;5071694;28;20048;-28
2022/03/14 09:10:07;;;;;;;22.55;11.50;;;;;;;9.75;100.00;102335.75;5073065;28;20366;-29
2022/03/14 09:12:35;;;;;;;20.35;10.68;;;;;;;9.96;100.00;102339.66;5072667;28;20036;-30
2022/03/14 09:15:04;;;;;;;21.17;12.10;;;;;;;10.22;100.00;102335.25;5063479;28;20048;-32
2022/03/14 09:17:35;;;;;;;23.42;12.68;;;;;;;10.31;100.00;102334.53;5072579;28;20052;-32
2022/03/14 09:20:05;;;;;;;24.58;12.45;;;;;;;10.51;100.00;102335.88;5071298;28;20401;-31
2022/03/14 09:22:35;;;;;;;21.35;11.77;;;;;;;10.69;100.00;102335.50;5072122;28;20048;-29
2022/03/14 09:25:07;;;;;;;24.88;11.85;;;;;;;11.05;100.00;102345.03;5071866;28;20177;-28
2022/03/14 09:27:34;;;;;;;19.95;11.48;;;;;;;11.22;100.00;102344.91;5071624;28;20052;-29
2022/03/14 09:30:02;;;;;;;18.52;11.10;;;;;;;11.35;100.00;102342.50;5072065;28;20059;-30
2022/03/14 09:32:30;;;;;;;20.25;10.48;;;;;;;11.50;100.00;102352.94;5072333;28;20040;-28
2022/03/14 09:34:59;;;;;;;22.17;11.02;;;;;;;11.67;100.00;102358.38;5071521;28;20404;-28
2022/03/14 09:37:31;;;;;;;19.58;10.88;;;;;;;11.73;100.00;102371.28;5061548;28;20504;-27
2022/03/14 09:40:00;;;;;;;18.38;11.23;;;;;;;11.76;100.00;102367.09;5071795;28;20440;-29
2022/03/14 09:42:29;;;;;;;21.85;11.70;;;;;;;11.89;100.00;102370.28;5071195;28;20128;-30
2022/03/14 09:45:04;;;;;;;21.08;11.90;;;;;;;12.26;100.00;102374.94;5072568;28;20098;-30
2022/03/14 09:47:37;;;;;;;22.13;11.93;;;;;;;12.62;100.00;102379.53;5072129;28;20370;-29
2022/03/14 09:50:11;;;;;;;20.88;12.50;;;;;;;12.72;100.00;102387.13;5067759;28;20135;-29
2022/03/14 09:52:40;;;;;;;22.50;11.95;;;;;;;12.38;100.00;102386.75;5071627;28;20645;-29
2022/03/14 09:55:09;;;;;;;20.48;12.00;;;;;;;12.15;100.00;102392.81;5071992;28;20043;-28
2022/03/14 09:57:39;;;;;;;18.85;12.30;;;;;;;11.96;100.00;102395.22;5070335;28;20044;-30
2022/03/14 10:00:12;;;;;;;21.92;12.52;;;;;;;11.84;100.00;102408.56;5072524;28;20130;-30
2022/03/14 10:02:41;;;;;;;20.55;11.55;;;;;;;11.93;100.00;102395.75;5070681;28;20575;-29
2022/03/14 10:05:12;;;;;;;19.95;12.02;;;;;;;12.11;100.00;102412.09;5072540;28;20127;-29
2022/03/14 10:07:43;;;;;;;18.00;11.63;;;;;;;12.03;100.00;102413.44;5072859;28;20056;-29
2022/03/14 10:10:13;;;;;;;18.83;11.10;;;;;;;11.92;100.00;102408.06;5072179;28;20052;-30
2022/03/14 10:12:42;;;;;;;17.73;10.60;;;;;;;11.86;100.00;102421.16;5072548;28;20076;-29
2022/03/14 10:15:11;;;;;;;17.95;11.43;;;;;;;11.84;100.00;102425.34;5071239;28;20041;-28
2022/03/14 10:17:39;;;;;;;17.77;10.55;;;;;;;11.77;100.00;102422.81;5071469;28;20052;-31
2022/03/14 10:20:08;;;;;;;18.73;10.98;;;;;;;11.63;100.00;102430.75;5072064;28;20037;-28
2022/03/14 10:22:38;;;;;;;21.67;12.25;;;;;;;11.52;100.00;102426.22;5072425;28;20079;-29
2022/03/14 10:25:09;;;;;;;20.00;12.20;;;;;;;11.39;100.00;102433.06;5071359;28;20469;-30
2022/03/14 10:27:39;;;;;;;22.50;11.65;;;;;;;11.35;100.00;102445.06;5072336;28;20052;-29
2022/03/14 10:30:22;;;;;;;24.13;13.23;;;;;;;11.33;100.00;102453.72;5071860;28;20080;-29
2022/03/14 10:32:50;;;;;;;18.20;10.77;;;;;;;11.26;100.00;102460.63;5063619;28;20090;-31
2022/03/14 10:35:20;;;;;;;24.15;12.07;;;;;;;11.30;100.00;102445.03;5071502;28;20257;-28
2022/03/14 10:37:59;;;;;;;24.45;12.43;;;;;;;11.28;100.00;102458.41;5071039;28;20421;-28
2022/03/14 10:40:30;;;;;;;18.73;11.82;;;;;;;11.14;100.00;102462.75;5071601;28;20056;-28
2022/03/14 10:42:58;;;;;;;19.38;11.43;;;;;;;11.00;100.00;102451.97;5071721;28;20102;-29
2022/03/14 10:45:26;;;;;;;21.30;11.95;;;;;;;10.94;100.00;102466.16;5070767;28;20358;-28
2022/03/14 10:47:57;;;;;;;20.48;11.60;;;;;;;10.98;100.00;102462.59;5071449;28;20048;-28
2022/03/14 10:50:29;;;;;;;19.55;11.52;;;;;;;11.01;100.00;102466.78;5071796;28;20032;-31
2022/03/14 10:53:10;;;;;;;20.52;11.73;;;;;;;10.97;100.00;102469.28;5070444;28;20048;-31
2022/03/14 10:55:39;;;;;;;23.38;12.23;;;;;;;10.94;100.00;102472.59;5071825;28;20041;-30
2022/03/14 10:58:13;;;;;;;24.23;11.43;;;;;;;10.95;100.00;102479.03;5071772;28;20130;-29
2022/03/14 11:00:48;;;;;;;19.63;11.30;;;;;;;11.02;100.00;102488.03;5070831;28;20055;-28
2022/03/14 11:03:27;;;;;;;15.85;9.27;;;;;;;11.26;100.00;102478.22;5071607;28;20052;-29
2022/03/14 11:05:59;;;;;;;17.15;9.35;;;;;;;11.47;100.00;102486.81;5069644;28;20444;-28
2022/03/14 11:08:33;;;;;;;20.45;9.40;;;;;;;11.64;100.00;102482.78;5071656;28;20064;-28
2022/03/14 11:11:04;;;;;;;18.40;9.07;;;;;;;11.80;100.00;102486.56;5071437;28;20143;-29
2022/03/14 11:13:32;;;;;;;17.55;9.02;;;;;;;12.01;100.00;102493.16;5070698;28;20049;-29
2022/03/14 11:16:02;;;;;;;21.63;8.63;;;;;;;12.07;100.00;102492.09;5071236;28;20040;-29
2022/03/14 11:18:30;;;;;;;19.10;8.85;;;;;;;11.81;100.00;102507.84;5071172;28;20095;-28
2022/03/14 11:21:00;;;;;;;18.48;8.35;;;;;;;11.79;100.00;102490.47;5070475;28;20041;-27
2022/03/14 11:23:29;;;;;;;14.68;7.03;;;;;;;11.93;100.00;102491.72;5071457;28;20052;-27